Polk, Ohio
Current Conditions -  °F | °C
As of 4:52 PM on Wednesday 28 Jan 2015 (Local Time) from KMFD Reporting Station
Clear Clear  
Wind Chill: 15°   Ceiling: Unl
Heat Index: 24°   Visibility: 10mi
Dew Point:   Wind: 8mph
Humidity: 42%   Direction: 160°SSE
Pressure: 30.25"   Gusts: NA
Location:  40.94°N, 82.22°W
Report Text: KMFD 282152Z 16007KT 10SM CLR M04/M16 A3025 RMK AO2 SLP269 T10441156
Loading
Personal Weather Stations






























Interactive Weather Map New forecast layout! Learn more

10-Day Weather Forecast

Advertisements
Track Severe Weather on mobile